ADDS METAR Data

Data at: 0530 UTC 19 Jan 2018

METAR for:KBOS (Boston/Logan Intl, MA, US)
Text:KBOS 190454Z 28011KT 10SM FEW035 M04/M09 A2995 RMK AO2 SLP141 T10391089 400001061
Temperature: -3.9°C ( 25°F)
Dewpoint: -8.9°C ( 16°F) [RH = 68%]
Pressure (altimeter):29.95 inches Hg (1014.3 mb) [Sea level pressure: 1014.1 mb]
Winds:from the W (280 degrees) at 13 MPH (11 knots; 5.7 m/s)
Visibility:10 or more sm (16+ km)
Ceiling:at least 12,000 feet AGL
Clouds: few clouds at 3500 feet AGL